Acosta, Pennsylvania
Current Conditions -  °F | °C
As of 4:54 AM on Saturday 25 Oct 2014 (Local Time) from KJST Reporting Station
Overcast Overcast  
Wind Chill: 44°   Ceiling: 4000
Heat Index: 48°   Visibility: 10mi
Dew Point: 37°   Wind: 9mph
Humidity: 66%   Direction: 250°WSW
Pressure: 29.95"   Gusts: NA
Location:  40.11°N, 79.07°W
Report Text: KJST 250854Z AUTO 25008KT 10SM OVC040 09/03 A2995 RMK AO2 SLP146 T00890028 57010
Loading
Personal Weather Stations






























Interactive Weather Map
Tropical Storm Tracking
New forecast layout! Learn more

10-Day Weather Forecast

Advertisements
Track Severe Weather on mobile